Time;durP1;ratioP1;P1;durP2;ratioP2;P2;SDS_P1;SDS_P2;PMS_P1;PMS_P2;Temp;Humidity;BMP_temperature;BMP_pressure;BME280_temperature;BME280_humidity;BME280_pressure;Samples;Min_cycle;Max_cycle;Signal;HPM_P1;HPM_P2
2021/06/11 00:00:31;;;;;;;4.57;4.00;;;;;;;;;;6202976;23;20359;-85
2021/06/11 00:02:57;;;;;;;6.63;6.07;;;;;;;;;;6196682;23;20413;-87
2021/06/11 00:05:24;;;;;;;4.90;3.63;;;;;;;;;;6171973;23;20394;-86
2021/06/11 00:07:50;;;;;;;7.73;5.57;;;;;;;;;;6184870;23;20350;-85
2021/06/11 00:10:17;;;;;;;4.20;3.90;;;;;;;;;;6202018;23;20420;-85
2021/06/11 00:12:43;;;;;;;5.13;4.73;;;;;;;;;;6169308;23;20768;-84
2021/06/11 00:15:10;;;;;;;5.50;5.00;;;;;;;;;;6171084;23;20434;-86
2021/06/11 00:17:36;;;;;;;4.20;3.90;;;;;;;;;;6147417;23;20390;-86
2021/06/11 00:20:04;;;;;;;4.93;4.63;;;;;;;;;;6144108;23;20525;-85
2021/06/11 00:22:30;;;;;;;4.97;4.57;;;;;;;;;;6145406;23;20397;-85
2021/06/11 00:24:56;;;;;;;4.47;4.07;;;;;;;;;;6196430;23;20390;-86
2021/06/11 00:27:22;;;;;;;4.80;4.30;;;;;;;;;;6198448;23;20507;-86
2021/06/11 00:29:49;;;;;;;4.10;3.80;;;;;;;;;;6172717;23;20811;-87
2021/06/11 00:32:15;;;;;;;4.27;3.97;;;;;;;;;;6149532;23;20387;-87
2021/06/11 00:34:41;;;;;;;6.50;4.43;;;;;;;;;;6171544;23;20465;-85
2021/06/11 00:37:08;;;;;;;5.37;4.87;;;;;;;;;;6173569;23;20386;-87
2021/06/11 00:39:34;;;;;;;5.50;4.57;;;;;;;;;;6146933;23;20445;-85
2021/06/11 00:42:03;;;;;;;4.67;4.40;;;;;;;;;;6170080;23;20383;-84
2021/06/11 00:44:30;;;;;;;4.43;4.13;;;;;;;;;;6194683;23;20450;-86
2021/06/11 00:46:56;;;;;;;5.03;4.50;;;;;;;;;;6165884;23;20768;-83
2021/06/11 00:49:23;;;;;;;8.03;4.90;;;;;;;;;;6166517;23;20406;-86
2021/06/11 00:51:49;;;;;;;5.60;5.10;;;;;;;;;;6159957;23;20388;-87
2021/06/11 00:54:15;;;;;;;5.63;5.20;;;;;;;;;;6196899;23;20445;-86
2021/06/11 00:56:42;;;;;;;4.33;4.03;;;;;;;;;;6149630;23;20387;-85
2021/06/11 00:59:08;;;;;;;5.30;4.90;;;;;;;;;;6187482;23;20396;-84
2021/06/11 01:01:34;;;;;;;4.63;4.13;;;;;;;;;;6187925;23;20382;-88
2021/06/11 01:04:00;;;;;;;5.33;4.93;;;;;;;;;;6213932;23;20395;-84
2021/06/11 01:06:29;;;;;;;5.67;5.20;;;;;;;;;;6203438;23;20845;-86
2021/06/11 01:08:56;;;;;;;5.20;4.80;;;;;;;;;;6168095;23;20449;-85
2021/06/11 01:11:23;;;;;;;6.30;4.70;;;;;;;;;;6143901;23;20721;-86
2021/06/11 01:13:49;;;;;;;5.97;5.37;;;;;;;;;;6144767;23;20410;-85
2021/06/11 01:16:15;;;;;;;4.67;4.37;;;;;;;;;;6144937;23;20379;-86
2021/06/11 01:18:42;;;;;;;4.60;4.20;;;;;;;;;;6168845;23;20371;-86
2021/06/11 01:21:08;;;;;;;5.13;4.60;;;;;;;;;;6142559;23;20387;-85
2021/06/11 01:23:53;;;;;;;5.00;4.50;;;;;;;;;;6167381;23;20394;-85
2021/06/11 01:26:28;;;;;;;8.67;5.00;;;;;;;;;;6142739;23;20441;-86
2021/06/11 01:28:56;;;;;;;4.87;4.57;;;;;;;;;;6167846;23;20398;-87
2021/06/11 01:31:22;;;;;;;5.60;5.17;;;;;;;;;;6142564;23;20386;-84
2021/06/11 01:33:52;;;;;;;7.03;5.80;;;;;;;;;;6168601;23;20441;-87
2021/06/11 01:36:20;;;;;;;4.70;4.30;;;;;;;;;;6142959;23;20809;-85
2021/06/11 01:38:48;;;;;;;4.67;4.23;;;;;;;;;;6168270;23;20366;-87
2021/06/11 01:41:17;;;;;;;5.23;4.73;;;;;;;;;;6147171;23;20375;-87
2021/06/11 01:43:47;;;;;;;5.37;4.83;;;;;;;;;;6172331;23;20405;-86
2021/06/11 01:46:16;;;;;;;6.60;6.10;;;;;;;;;;6172328;23;20359;-86
2021/06/11 01:48:46;;;;;;;6.63;6.13;;;;;;;;;;6174014;23;20365;-87
2021/06/11 01:51:13;;;;;;;4.60;4.20;;;;;;;;;;6173632;23;20413;-86
2021/06/11 01:53:40;;;;;;;7.13;3.67;;;;;;;;;;6173243;23;20394;-86
2021/06/11 01:56:07;;;;;;;4.93;4.00;;;;;;;;;;6195706;23;20363;-86
2021/06/11 01:58:33;;;;;;;8.30;5.03;;;;;;;;;;6169200;23;20379;-86
2021/06/11 02:00:59;;;;;;;5.30;4.80;;;;;;;;;;6170875;23;20398;-85
2021/06/11 02:03:27;;;;;;;5.90;4.90;;;;;;;;;;6196504;23;20405;-87
2021/06/11 02:05:53;;;;;;;5.40;4.90;;;;;;;;;;6196379;23;20401;-87
2021/06/11 02:08:20;;;;;;;5.53;5.03;;;;;;;;;;6147244;23;20390;-85
2021/06/11 02:10:47;;;;;;;3.80;3.37;;;;;;;;;;6150305;23;20420;-86
2021/06/11 02:13:13;;;;;;;4.20;3.90;;;;;;;;;;6181103;23;20421;-86
2021/06/11 02:15:40;;;;;;;3.80;3.50;;;;;;;;;;6210149;23;20440;-84
2021/06/11 02:18:06;;;;;;;4.87;4.47;;;;;;;;;;6171186;23;20445;-85
2021/06/11 02:20:32;;;;;;;4.67;4.23;;;;;;;;;;6145731;23;20412;-86
2021/06/11 02:22:58;;;;;;;4.23;3.93;;;;;;;;;;6195244;23;20417;-85
2021/06/11 02:25:26;;;;;;;6.60;4.30;;;;;;;;;;6152323;23;20424;-87
2021/06/11 02:27:54;;;;;;;4.13;3.73;;;;;;;;;;6189852;23;20370;-87
2021/06/11 02:30:20;;;;;;;6.60;4.60;;;;;;;;;;6227510;23;20436;-87
2021/06/11 02:32:47;;;;;;;5.17;4.67;;;;;;;;;;6226621;23;20376;-86
2021/06/11 02:35:14;;;;;;;5.50;5.10;;;;;;;;;;6169894;23;20399;-86
2021/06/11 02:37:41;;;;;;;5.03;4.53;;;;;;;;;;6197421;23;20754;-86
2021/06/11 02:40:08;;;;;;;5.07;4.67;;;;;;;;;;6153298;23;20378;-85
2021/06/11 02:42:34;;;;;;;5.03;4.17;;;;;;;;;;6211730;23;20412;-86
2021/06/11 02:45:08;;;;;;;6.10;5.40;;;;;;;;;;6187070;23;20473;-85
2021/06/11 02:47:50;;;;;;;5.20;4.70;;;;;;;;;;6185716;23;20401;-86
2021/06/11 02:50:17;;;;;;;6.43;5.97;;;;;;;;;;6212765;23;20392;-85
2021/06/11 02:52:48;;;;;;;5.67;5.27;;;;;;;;;;6212799;23;20358;-87
2021/06/11 02:55:18;;;;;;;7.60;5.77;;;;;;;;;;6184728;23;20429;-87
2021/06/11 02:57:49;;;;;;;5.63;5.23;;;;;;;;;;6209948;23;20373;-87
2021/06/11 03:00:16;;;;;;;6.83;6.43;;;;;;;;;;6162242;23;20354;-87
2021/06/11 03:02:50;;;;;;;8.07;5.90;;;;;;;;;;6211045;23;20385;-87
2021/06/11 03:05:20;;;;;;;7.70;5.73;;;;;;;;;;6181562;23;20498;-87
2021/06/11 03:07:48;;;;;;;5.63;5.13;;;;;;;;;;6176725;23;20376;-87
2021/06/11 03:10:15;;;;;;;6.80;5.27;;;;;;;;;;6186796;23;20444;-87
2021/06/11 03:12:42;;;;;;;6.97;5.80;;;;;;;;;;6212539;23;20375;-88
2021/06/11 03:15:09;;;;;;;6.47;5.87;;;;;;;;;;6186547;23;20424;-87
2021/06/11 03:17:42;;;;;;;7.20;4.73;;;;;;;;;;6186502;23;20369;-86
2021/06/11 03:20:11;;;;;;;6.67;6.00;;;;;;;;;;6187316;23;20465;-86
2021/06/11 03:22:40;;;;;;;5.97;5.33;;;;;;;;;;6179283;23;20481;-87
2021/06/11 03:25:21;;;;;;;5.67;5.27;;;;;;;;;;6146720;23;20479;-86
2021/06/11 03:27:51;;;;;;;5.63;5.13;;;;;;;;;;6230368;23;20361;-87
2021/06/11 03:30:22;;;;;;;5.40;4.90;;;;;;;;;;6229445;23;20417;-87
2021/06/11 03:32:53;;;;;;;7.23;6.63;;;;;;;;;;6201043;23;20370;-86
2021/06/11 03:35:22;;;;;;;6.20;5.70;;;;;;;;;;6201632;23;20394;-86
2021/06/11 03:37:51;;;;;;;6.40;6.00;;;;;;;;;;6198160;23;20407;-86
2021/06/11 03:40:19;;;;;;;6.40;5.80;;;;;;;;;;6224405;23;20378;-86
2021/06/11 03:42:45;;;;;;;6.03;5.53;;;;;;;;;;6223887;23;20378;-86
2021/06/11 03:45:15;;;;;;;6.50;6.00;;;;;;;;;;6224936;23;20424;-87
2021/06/11 03:47:41;;;;;;;6.80;6.20;;;;;;;;;;6200719;23;20402;-85
2021/06/11 03:50:07;;;;;;;6.47;5.97;;;;;;;;;;6176492;23;20803;-86
2021/06/11 03:52:35;;;;;;;6.50;5.90;;;;;;;;;;6204498;23;20373;-86
2021/06/11 03:55:02;;;;;;;10.93;6.53;;;;;;;;;;6204962;23;20384;-86
2021/06/11 03:57:30;;;;;;;5.93;5.40;;;;;;;;;;6233011;23;20365;-85
2021/06/11 03:59:57;;;;;;;6.40;5.90;;;;;;;;;;6207685;23;20373;-87
2021/06/11 04:02:23;;;;;;;8.87;5.50;;;;;;;;;;6193984;23;20381;-86
2021/06/11 04:04:49;;;;;;;5.77;5.17;;;;;;;;;;6192929;23;20362;-86
2021/06/11 04:07:16;;;;;;;5.80;5.20;;;;;;;;;;6191575;23;20388;-87
2021/06/11 04:09:49;;;;;;;5.47;4.97;;;;;;;;;;6191384;23;20413;-87
2021/06/11 04:12:23;;;;;;;5.80;5.40;;;;;;;;;;6233136;23;20390;-86
2021/06/11 04:14:50;;;;;;;5.90;5.27;;;;;;;;;;6178881;23;20389;-86
2021/06/11 04:17:20;;;;;;;5.67;5.17;;;;;;;;;;6230004;23;20395;-87
2021/06/11 04:19:50;;;;;;;9.57;5.80;;;;;;;;;;6208055;23;20362;-87
2021/06/11 04:22:22;;;;;;;6.20;5.60;;;;;;;;;;6200917;23;20426;-86
2021/06/11 04:24:52;;;;;;;6.07;4.17;;;;;;;;;;6226149;23;20424;-87
2021/06/11 04:27:19;;;;;;;6.77;4.83;;;;;;;;;;6202179;23;20382;-87
2021/06/11 04:29:46;;;;;;;9.20;4.60;;;;;;;;;;6228888;23;20413;-87
2021/06/11 04:32:15;;;;;;;6.40;5.90;;;;;;;;;;6225423;23;20374;-87
2021/06/11 04:34:42;;;;;;;6.20;4.80;;;;;;;;;;6206496;23;20425;-87
2021/06/11 04:37:17;;;;;;;5.83;5.33;;;;;;;;;;6199494;23;20416;-88
2021/06/11 04:39:46;;;;;;;5.37;4.83;;;;;;;;;;6198909;23;20353;-88
2021/06/11 04:42:12;;;;;;;5.87;5.37;;;;;;;;;;6224042;23;20374;-87
2021/06/11 04:44:38;;;;;;;7.30;6.70;;;;;;;;;;6197385;23;20370;-88
2021/06/11 04:47:04;;;;;;;6.77;5.37;;;;;;;;;;6173530;23;20401;-87
2021/06/11 04:49:31;;;;;;;6.57;5.63;;;;;;;;;;6200715;23;20483;-87
2021/06/11 04:51:58;;;;;;;6.63;5.60;;;;;;;;;;6193738;23;20385;-87
2021/06/11 04:54:24;;;;;;;6.37;5.57;;;;;;;;;;6174708;23;20374;-87
2021/06/11 04:56:50;;;;;;;6.47;5.40;;;;;;;;;;6177149;23;20394;-87
2021/06/11 04:59:17;;;;;;;6.27;5.67;;;;;;;;;;6228839;23;20370;-87
2021/06/11 05:01:52;;;;;;;8.03;5.43;;;;;;;;;;6226997;23;20376;-87
2021/06/11 05:04:18;;;;;;;5.80;4.93;;;;;;;;;;6201047;23;20414;-87
2021/06/11 05:06:45;;;;;;;7.40;5.70;;;;;;;;;;6202633;23;20390;-87
2021/06/11 05:09:11;;;;;;;8.03;5.83;;;;;;;;;;6230192;23;20370;-88
2021/06/11 05:11:37;;;;;;;5.43;4.60;;;;;;;;;;6201449;23;20373;-87
2021/06/11 05:14:03;;;;;;;7.37;6.67;;;;;;;;;;6214040;23;20449;-87
2021/06/11 05:16:29;;;;;;;6.67;6.07;;;;;;;;;;6179454;23;20453;-87
2021/06/11 05:18:59;;;;;;;4.60;4.20;;;;;;;;;;6204678;23;20401;-87
2021/06/11 05:21:25;;;;;;;4.90;4.60;;;;;;;;;;6229937;23;20772;-88
2021/06/11 05:23:54;;;;;;;5.47;4.97;;;;;;;;;;6204646;23;20421;-86
2021/06/11 05:26:26;;;;;;;6.07;4.20;;;;;;;;;;6178582;23;20413;-88
2021/06/11 05:28:55;;;;;;;7.00;5.80;;;;;;;;;;6175548;23;20922;-87
2021/06/11 05:31:21;;;;;;;7.57;5.10;;;;;;;;;;6203804;23;20435;-87
2021/06/11 05:33:51;;;;;;;5.27;4.87;;;;;;;;;;6202132;23;20370;-87
2021/06/11 05:36:17;;;;;;;7.10;4.50;;;;;;;;;;6201918;23;20434;-86
2021/06/11 05:38:43;;;;;;;6.43;5.27;;;;;;;;;;6200965;23;20460;-88
2021/06/11 05:41:09;;;;;;;4.40;4.10;;;;;;;;;;6203505;23;20370;-86
2021/06/11 05:43:44;;;;;;;5.50;5.10;;;;;;;;;;6178589;23;20386;-87
2021/06/11 05:46:14;;;;;;;4.47;4.17;;;;;;;;;;6201208;23;20715;-87
2021/06/11 05:48:43;;;;;;;5.60;5.10;;;;;;;;;;6204876;23;20374;-87
2021/06/11 05:51:14;;;;;;;5.70;4.83;;;;;;;;;;6204550;23;20445;-87
2021/06/11 05:53:47;;;;;;;5.17;4.67;;;;;;;;;;6180165;23;20416;-86
2021/06/11 05:56:13;;;;;;;5.50;4.97;;;;;;;;;;6203351;23;20393;-87
2021/06/11 05:58:39;;;;;;;5.27;4.83;;;;;;;;;;6203722;23;20381;-87
2021/06/11 06:01:08;;;;;;;6.00;4.70;;;;;;;;;;6180016;23;20392;-87
2021/06/11 06:03:34;;;;;;;6.60;6.03;;;;;;;;;;6179633;23;20374;-87
2021/06/11 06:06:03;;;;;;;5.97;5.57;;;;;;;;;;6231095;23;20408;-87
2021/06/11 06:08:30;;;;;;;6.67;6.20;;;;;;;;;;6203346;23;20381;-88
2021/06/11 06:10:56;;;;;;;5.80;5.40;;;;;;;;;;6229734;23;20406;-87
2021/06/11 06:13:22;;;;;;;6.80;6.20;;;;;;;;;;6203154;23;20523;-87
2021/06/11 06:15:49;;;;;;;11.13;7.33;;;;;;;;;;6181362;23;20500;-86
2021/06/11 06:18:15;;;;;;;6.43;5.83;;;;;;;;;;6211925;23;20365;-87
2021/06/11 06:20:43;;;;;;;6.07;5.53;;;;;;;;;;6215463;23;20381;-88
2021/06/11 06:23:16;;;;;;;6.53;5.93;;;;;;;;;;6216805;23;20350;-87
2021/06/11 06:25:42;;;;;;;7.17;6.70;;;;;;;;;;6242264;23;20386;-87
2021/06/11 06:28:09;;;;;;;7.13;5.90;;;;;;;;;;6215945;23;20393;-86
2021/06/11 06:30:35;;;;;;;7.80;6.57;;;;;;;;;;6189798;23;20420;-87
2021/06/11 06:33:06;;;;;;;6.70;6.20;;;;;;;;;;6183832;23;20385;-86
2021/06/11 06:35:46;;;;;;;6.63;6.13;;;;;;;;;;6202083;23;20433;-87
2021/06/11 06:38:21;;;;;;;6.53;6.03;;;;;;;;;;6197247;23;20493;-88
2021/06/11 06:41:10;;;;;;;7.03;5.80;;;;;;;;;;6176308;23;20382;-88
2021/06/11 06:43:41;;;;;;;7.70;6.60;;;;;;;;;;6201404;23;20380;-88
2021/06/11 06:46:08;;;;;;;7.40;6.80;;;;;;;;;;6180427;23;20404;-87
2021/06/11 06:48:46;;;;;;;6.77;6.20;;;;;;;;;;6208233;23;20373;-87
2021/06/11 06:51:18;;;;;;;6.43;5.83;;;;;;;;;;6181857;23;20443;-87
2021/06/11 06:53:44;;;;;;;8.20;6.97;;;;;;;;;;6177603;23;20370;-87
2021/06/11 06:56:18;;;;;;;9.20;7.30;;;;;;;;;;6178656;23;20401;-88
2021/06/11 06:58:52;;;;;;;10.20;9.40;;;;;;;;;;6180093;23;20370;-87
2021/06/11 07:01:27;;;;;;;5.93;5.40;;;;;;;;;;6204184;23;20373;-87
2021/06/11 07:04:10;;;;;;;6.67;6.10;;;;;;;;;;6177223;23;20392;-87
2021/06/11 07:06:39;;;;;;;9.17;8.37;;;;;;;;;;6201733;23;20428;-87
2021/06/11 07:09:09;;;;;;;6.73;6.20;;;;;;;;;;6177440;23;20377;-86
2021/06/11 07:11:37;;;;;;;6.80;6.30;;;;;;;;;;6199610;23;20358;-87
2021/06/11 07:14:06;;;;;;;6.17;5.77;;;;;;;;;;6199819;23;20369;-86
2021/06/11 07:16:32;;;;;;;5.97;5.67;;;;;;;;;;6200598;23;20378;-87
2021/06/11 07:18:58;;;;;;;7.83;7.13;;;;;;;;;;6202364;23;20385;-87
2021/06/11 07:21:34;;;;;;;7.13;6.63;;;;;;;;;;6205585;23;20800;-88
2021/06/11 07:24:16;;;;;;;;;;;;;;;;;;;;;
2021/06/11 07:27:03;;;;;;;10.70;8.40;;;;;;;;;;6226308;23;20385;-89
2021/06/11 07:29:33;;;;;;;7.37;6.87;;;;;;;;;;6178849;23;20428;-89
2021/06/11 07:31:59;;;;;;;7.80;7.20;;;;;;;;;;6179369;23;20384;-87
2021/06/11 07:34:26;;;;;;;8.60;7.90;;;;;;;;;;6234843;23;20404;-87
2021/06/11 07:36:55;;;;;;;8.73;8.13;;;;;;;;;;6203825;23;20394;-87
2021/06/11 07:39:31;;;;;;;7.50;6.80;;;;;;;;;;6180419;23;20936;-87
2021/06/11 07:41:58;;;;;;;10.10;9.20;;;;;;;;;;6179255;23;20368;-87
2021/06/11 07:44:42;;;;;;;8.03;7.33;;;;;;;;;;6183484;23;20433;-87
2021/06/11 07:47:27;;;;;;;8.20;7.50;;;;;;;;;;6212448;23;20449;-88
2021/06/11 07:50:00;;;;;;;8.63;7.80;;;;;;;;;;6186094;23;20441;-87
2021/06/11 07:53:01;;;;;;;11.20;8.57;;;;;;;;;;6206906;23;20362;-87
2021/06/11 07:55:31;;;;;;;8.40;7.80;;;;;;;;;;6206437;23;20420;-88
2021/06/11 07:58:13;;;;;;;10.50;9.70;;;;;;;;;;6181029;23;20388;-87
2021/06/11 08:00:45;;;;;;;10.17;9.20;;;;;;;;;;6182676;23;20747;-88
2021/06/11 08:03:14;;;;;;;8.60;8.00;;;;;;;;;;6183008;23;20375;-88
2021/06/11 08:05:49;;;;;;;10.43;9.33;;;;;;;;;;6233087;23;20441;-88
2021/06/11 08:08:18;;;;;;;10.10;8.83;;;;;;;;;;6206946;23;20773;-87
2021/06/11 08:10:48;;;;;;;10.40;9.40;;;;;;;;;;6181905;23;20471;-88
2021/06/11 08:13:29;;;;;;;8.80;8.03;;;;;;;;;;6229661;23;20820;-88
2021/06/11 08:16:01;;;;;;;10.27;9.40;;;;;;;;;;6206161;23;20508;-86
2021/06/11 08:18:31;;;;;;;13.03;10.47;;;;;;;;;;6180927;23;20354;-87
2021/06/11 08:21:21;;;;;;;9.97;9.07;;;;;;;;;;6179342;23;20382;-88
2021/06/11 08:23:57;;;;;;;9.03;8.43;;;;;;;;;;6199165;23;20455;-88
2021/06/11 08:26:37;;;;;;;8.70;7.63;;;;;;;;;;6166793;23;20527;-80
2021/06/11 08:29:03;;;;;;;14.13;13.13;;;;;;;;;;6203338;23;20429;-81
2021/06/11 08:31:29;;;;;;;8.43;7.63;;;;;;;;;;6225162;23;20427;-81
2021/06/11 08:33:58;;;;;;;8.00;7.40;;;;;;;;;;6225062;23;20409;-82
2021/06/11 08:36:28;;;;;;;8.97;8.37;;;;;;;;;;6186969;23;20423;-81
2021/06/11 08:39:02;;;;;;;11.77;10.57;;;;;;;;;;6193621;23;20370;-80
2021/06/11 08:41:36;;;;;;;10.23;9.43;;;;;;;;;;6143694;23;20514;-82
2021/06/11 08:44:05;;;;;;;10.00;9.20;;;;;;;;;;6142184;23;20387;-81
2021/06/11 08:46:34;;;;;;;12.40;8.77;;;;;;;;;;6167124;23;20737;-80
2021/06/11 08:49:01;;;;;;;7.67;7.07;;;;;;;;;;6167418;23;20390;-81
2021/06/11 08:51:28;;;;;;;11.40;6.63;;;;;;;;;;6194578;23;20790;-81
2021/06/11 08:53:55;;;;;;;9.50;6.63;;;;;;;;;;6166744;23;20390;-81
2021/06/11 08:56:40;;;;;;;6.10;5.70;;;;;;;;;;6167456;23;20414;-81
2021/06/11 08:59:14;;;;;;;8.13;7.47;;;;;;;;;;6169584;23;20371;-82
2021/06/11 09:01:43;;;;;;;11.90;8.07;;;;;;;;;;6172842;23;20367;-82
2021/06/11 09:04:11;;;;;;;8.37;7.37;;;;;;;;;;6175556;23;20395;-81
2021/06/11 09:06:43;;;;;;;9.00;7.80;;;;;;;;;;6199484;23;20391;-81
2021/06/11 09:09:10;;;;;;;7.17;6.67;;;;;;;;;;6156961;23;20359;-83
2021/06/11 09:11:37;;;;;;;7.03;6.43;;;;;;;;;;6149522;23;20414;-81
2021/06/11 09:17:32;;;;;;;7.70;7.00;;;;;;;;;;6195018;23;20456;-82
2021/06/11 09:20:05;;;;;;;6.03;5.43;;;;;;;;;;6167963;23;20455;-81
2021/06/11 09:22:48;;;;;;;5.30;4.90;;;;;;;;;;6194709;23;20370;-82
2021/06/11 09:25:23;;;;;;;6.63;6.13;;;;;;;;;;6194642;23;20373;-82
2021/06/11 09:27:50;;;;;;;5.50;5.00;;;;;;;;;;6167926;23;20418;-82
2021/06/11 09:30:17;;;;;;;5.67;5.17;;;;;;;;;;6195232;23;20411;-82
2021/06/11 09:32:54;;;;;;;5.10;4.63;;;;;;;;;;6195234;23;20374;-82
2021/06/11 09:35:27;;;;;;;6.30;5.80;;;;;;;;;;6142740;23;20378;-83
2021/06/11 09:38:26;;;;;;;6.07;5.57;;;;;;;;;;6167853;23;20412;-81
2021/06/11 09:40:59;;;;;;;5.33;4.87;;;;;;;;;;6170752;23;20452;-80
2021/06/11 09:43:30;;;;;;;6.80;6.40;;;;;;;;;;6194234;23;20366;-81
2021/06/11 09:46:26;;;;;;;5.37;5.00;;;;;;;;;;6170236;23;20343;-81
2021/06/11 09:48:53;;;;;;;5.03;4.63;;;;;;;;;;6203818;23;20375;-82
2021/06/11 09:51:23;;;;;;;5.30;4.90;;;;;;;;;;6170223;23;20418;-82
2021/06/11 09:53:51;;;;;;;6.80;5.20;;;;;;;;;;6194568;23;20420;-82
2021/06/11 09:56:27;;;;;;;5.07;4.77;;;;;;;;;;6193930;23;20429;-81
2021/06/11 09:58:59;;;;;;;7.77;7.17;;;;;;;;;;6167546;23;20558;-82
2021/06/11 10:01:32;;;;;;;6.00;5.60;;;;;;;;;;6144938;23;20378;-82
2021/06/11 10:04:02;;;;;;;4.87;4.57;;;;;;;;;;6194118;23;20370;-82
2021/06/11 10:06:35;;;;;;;5.87;5.37;;;;;;;;;;6194166;23;20395;-81
2021/06/11 10:09:04;;;;;;;4.53;4.23;;;;;;;;;;6168657;23;20375;-82
2021/06/11 10:11:32;;;;;;;4.70;4.30;;;;;;;;;;6169430;23;20418;-81
2021/06/11 10:13:59;;;;;;;5.40;4.90;;;;;;;;;;6167715;23;20386;-82
2021/06/11 10:16:26;;;;;;;4.40;4.00;;;;;;;;;;6193721;23;20399;-82
2021/06/11 10:18:53;;;;;;;7.10;6.50;;;;;;;;;;6143313;23;20379;-82
2021/06/11 10:21:20;;;;;;;5.03;4.73;;;;;;;;;;6143502;23;20695;-82
2021/06/11 10:23:46;;;;;;;6.43;5.50;;;;;;;;;;6167563;23;20379;-82
2021/06/11 10:26:15;;;;;;;6.30;5.90;;;;;;;;;;6141978;23;20413;-81
2021/06/11 10:28:43;;;;;;;4.57;4.27;;;;;;;;;;6194005;23;20451;-80
2021/06/11 10:31:11;;;;;;;3.87;3.57;;;;;;;;;;6167373;23;20453;-81
2021/06/11 10:33:46;;;;;;;4.50;4.10;;;;;;;;;;6194623;23;20363;-82
2021/06/11 10:39:10;;;;;;;5.20;4.80;;;;;;;;;;6166236;23;20393;-82
2021/06/11 10:42:02;;;;;;;4.60;4.20;;;;;;;;;;6165611;23;20554;-82
2021/06/11 10:44:36;;;;;;;4.47;4.07;;;;;;;;;;6166547;23;20462;-82
2021/06/11 10:47:21;;;;;;;4.27;3.90;;;;;;;;;;6166579;23;20397;-81
2021/06/11 10:50:02;;;;;;;3.93;3.33;;;;;;;;;;6195282;23;20387;-81
2021/06/11 10:52:33;;;;;;;7.07;4.70;;;;;;;;;;6166251;23;20377;-81
2021/06/11 10:55:18;;;;;;;3.63;3.37;;;;;;;;;;6167984;23;20871;-81
2021/06/11 10:57:53;;;;;;;9.20;4.07;;;;;;;;;;6168704;23;20390;-81
2021/06/11 11:00:22;;;;;;;10.37;3.80;;;;;;;;;;6169556;23;20418;-82
2021/06/11 11:02:50;;;;;;;3.63;3.43;;;;;;;;;;6144164;23;20379;-80
2021/06/11 11:05:29;;;;;;;5.33;4.87;;;;;;;;;;6169774;23;20374;-82
2021/06/11 11:07:56;;;;;;;4.40;4.13;;;;;;;;;;6144674;23;20399;-82
2021/06/11 11:10:36;;;;;;;4.80;4.30;;;;;;;;;;6195499;23;20370;-80
2021/06/11 11:13:04;;;;;;;5.80;5.23;;;;;;;;;;6168749;23;20381;-81
2021/06/11 11:15:35;;;;;;;5.90;5.40;;;;;;;;;;6195143;23;20358;-81
2021/06/11 11:18:02;;;;;;;5.33;4.93;;;;;;;;;;6169674;23;20418;-81
2021/06/11 11:20:32;;;;;;;4.53;3.97;;;;;;;;;;6145178;23;20453;-81
2021/06/11 11:23:00;;;;;;;4.80;4.40;;;;;;;;;;6169549;23;20414;-80
2021/06/11 11:25:32;;;;;;;5.20;4.30;;;;;;;;;;6170324;23;20394;-80
2021/06/11 11:27:59;;;;;;;3.73;3.37;;;;;;;;;;6144396;23;20460;-81
2021/06/11 11:30:27;;;;;;;5.00;4.33;;;;;;;;;;6196051;23;20462;-81
2021/06/11 11:32:57;;;;;;;4.63;4.23;;;;;;;;;;6145829;23;20451;-81
2021/06/11 11:35:26;;;;;;;3.27;3.07;;;;;;;;;;6195054;23;20366;-81
2021/06/11 11:37:54;;;;;;;3.30;2.80;;;;;;;;;;6194960;23;20390;-82
2021/06/11 11:40:20;;;;;;;3.77;3.57;;;;;;;;;;6195697;23;20418;-81
2021/06/11 11:42:47;;;;;;;4.00;3.00;;;;;;;;;;6169244;23;20370;-81
2021/06/11 11:45:14;;;;;;;2.97;2.77;;;;;;;;;;6169824;23;20398;-83
2021/06/11 11:47:46;;;;;;;3.73;3.40;;;;;;;;;;6197164;23;20398;-82
2021/06/11 11:50:12;;;;;;;4.33;4.03;;;;;;;;;;6197830;23;20449;-82
2021/06/11 11:52:39;;;;;;;4.30;4.00;;;;;;;;;;6198368;23;20378;-84
2021/06/11 11:55:06;;;;;;;4.50;4.30;;;;;;;;;;6200560;23;20875;-83
2021/06/11 11:57:32;;;;;;;5.27;4.00;;;;;;;;;;6174858;23;20422;-83
2021/06/11 11:59:59;;;;;;;4.00;3.70;;;;;;;;;;6173478;23;20473;-83
2021/06/11 12:02:27;;;;;;;4.00;3.70;;;;;;;;;;6197283;23;20370;-82
2021/06/11 12:04:54;;;;;;;3.83;3.43;;;;;;;;;;6197352;23;20378;-82
2021/06/11 12:07:20;;;;;;;3.23;3.03;;;;;;;;;;6170116;23;20409;-83
2021/06/11 12:09:47;;;;;;;4.67;3.20;;;;;;;;;;6170325;23;20390;-82
2021/06/11 12:12:13;;;;;;;4.07;3.80;;;;;;;;;;6171918;23;20383;-83
2021/06/11 12:14:40;;;;;;;3.10;2.87;;;;;;;;;;6172164;23;20382;-83
2021/06/11 12:17:06;;;;;;;3.53;3.23;;;;;;;;;;6147222;23;20398;-82
2021/06/11 12:19:33;;;;;;;2.93;2.73;;;;;;;;;;6170019;23;20519;-83
2021/06/11 12:22:02;;;;;;;3.10;2.60;;;;;;;;;;6145384;23;20383;-83
2021/06/11 12:24:28;;;;;;;3.03;2.83;;;;;;;;;;6169911;23;20389;-83
2021/06/11 12:26:55;;;;;;;2.90;2.60;;;;;;;;;;6169845;23;20415;-83
2021/06/11 12:29:22;;;;;;;2.40;2.20;;;;;;;;;;6172859;23;20382;-83
2021/06/11 12:31:49;;;;;;;2.83;2.60;;;;;;;;;;6199869;23;20398;-83
2021/06/11 12:34:16;;;;;;;5.87;2.37;;;;;;;;;;6172091;23;20383;-81
2021/06/11 12:36:43;;;;;;;2.87;2.67;;;;;;;;;;6199118;23;20383;-82
2021/06/11 12:39:10;;;;;;;4.43;2.57;;;;;;;;;;6199412;23;20385;-83
2021/06/11 12:41:38;;;;;;;2.33;2.13;;;;;;;;;;6199305;23;20418;-83
2021/06/11 12:44:15;;;;;;;2.63;2.43;;;;;;;;;;6198883;23;20802;-83
2021/06/11 12:46:49;;;;;;;1.97;1.83;;;;;;;;;;6198851;23;20394;-83
2021/06/11 12:49:16;;;;;;;2.30;2.10;;;;;;;;;;6173215;23;20394;-81
2021/06/11 12:51:42;;;;;;;1.83;1.73;;;;;;;;;;6170752;23;20466;-82
2021/06/11 12:54:09;;;;;;;2.37;2.20;;;;;;;;;;6172473;23;20378;-83
2021/06/11 12:56:37;;;;;;;3.60;2.10;;;;;;;;;;6197427;23;20382;-83
2021/06/11 12:59:03;;;;;;;4.17;2.00;;;;;;;;;;6198155;23;20366;-83
2021/06/11 13:01:30;;;;;;;2.07;1.90;;;;;;;;;;6173427;23;20423;-83
2021/06/11 13:04:00;;;;;;;2.43;2.03;;;;;;;;;;6196133;23;20371;-82
2021/06/11 13:06:27;;;;;;;3.50;2.20;;;;;;;;;;6170952;23;20398;-82
2021/06/11 13:08:54;;;;;;;3.27;2.07;;;;;;;;;;6198027;23;20825;-81
2021/06/11 13:11:21;;;;;;;2.47;2.27;;;;;;;;;;6198199;23;20375;-83
2021/06/11 13:13:47;;;;;;;2.70;2.50;;;;;;;;;;6198642;23;20717;-83
2021/06/11 13:16:14;;;;;;;3.57;2.43;;;;;;;;;;6173089;23;20395;-83
2021/06/11 13:18:44;;;;;;;3.03;2.47;;;;;;;;;;6199303;23;20385;-82
2021/06/11 13:21:10;;;;;;;3.33;3.03;;;;;;;;;;6176959;23;20454;-82
2021/06/11 13:23:36;;;;;;;2.47;2.37;;;;;;;;;;6177794;23;20383;-83
2021/06/11 13:26:03;;;;;;;3.47;2.33;;;;;;;;;;6201853;23;20397;-82
2021/06/11 13:28:29;;;;;;;4.20;2.70;;;;;;;;;;6171696;23;20872;-83
2021/06/11 13:30:56;;;;;;;2.90;2.50;;;;;;;;;;6172404;23;20893;-83
2021/06/11 13:33:22;;;;;;;2.50;2.30;;;;;;;;;;6198982;23;20402;-82
2021/06/11 13:35:49;;;;;;;3.20;3.00;;;;;;;;;;6175114;23;20371;-82
2021/06/11 13:38:16;;;;;;;2.83;2.63;;;;;;;;;;6154629;23;20387;-83
2021/06/11 13:40:42;;;;;;;2.67;2.47;;;;;;;;;;6176804;23;20430;-83
2021/06/11 13:43:09;;;;;;;2.57;2.30;;;;;;;;;;6177453;23;20366;-83
2021/06/11 13:45:37;;;;;;;2.73;2.57;;;;;;;;;;6197469;23;20438;-83
2021/06/11 13:48:04;;;;;;;2.63;2.43;;;;;;;;;;6169893;23;20383;-83
2021/06/11 13:50:31;;;;;;;2.80;2.60;;;;;;;;;;6197146;23;20426;-84
2021/06/11 13:52:58;;;;;;;7.30;2.90;;;;;;;;;;6171687;23;20385;-83
2021/06/11 13:55:25;;;;;;;1.93;1.53;;;;;;;;;;6171541;23;20406;-83
2021/06/11 13:57:51;;;;;;;6.27;2.50;;;;;;;;;;6171242;23;20403;-84
2021/06/11 14:00:20;;;;;;;5.40;2.97;;;;;;;;;;6147291;23;20770;-84
2021/06/11 14:02:47;;;;;;;3.33;2.73;;;;;;;;;;6171775;23;20482;-84
2021/06/11 14:05:15;;;;;;;2.30;2.10;;;;;;;;;;6171296;23;20860;-83
2021/06/11 14:07:42;;;;;;;3.00;2.70;;;;;;;;;;6197489;23;20879;-84
2021/06/11 14:10:09;;;;;;;6.33;2.80;;;;;;;;;;6172698;23;20370;-84
2021/06/11 14:12:36;;;;;;;3.13;2.73;;;;;;;;;;6198045;23;20375;-82
2021/06/11 14:15:03;;;;;;;2.50;2.30;;;;;;;;;;6148308;23;20439;-83
2021/06/11 14:17:38;;;;;;;5.93;3.90;;;;;;;;;;6197773;23;20394;-83
2021/06/11 14:20:07;;;;;;;3.13;2.93;;;;;;;;;;6172354;23;20425;-83
2021/06/11 14:22:33;;;;;;;2.40;2.23;;;;;;;;;;6173268;23;20450;-82
2021/06/11 14:25:00;;;;;;;2.23;2.13;;;;;;;;;;6147517;23;20413;-83
2021/06/11 14:27:27;;;;;;;2.57;2.37;;;;;;;;;;6178908;23;20433;-86
2021/06/11 14:29:54;;;;;;;3.10;2.90;;;;;;;;;;6179461;23;20468;-85
2021/06/11 14:32:21;;;;;;;2.30;2.10;;;;;;;;;;6231166;23;20448;-86
2021/06/11 14:34:47;;;;;;;2.57;2.40;;;;;;;;;;6227739;23;20373;-86
2021/06/11 14:37:14;;;;;;;2.43;2.23;;;;;;;;;;6193839;23;20398;-86
2021/06/11 14:39:41;;;;;;;2.13;1.80;;;;;;;;;;6170649;23;20422;-85
2021/06/11 14:42:07;;;;;;;2.90;2.70;;;;;;;;;;6198129;23;20371;-84
2021/06/11 14:44:34;;;;;;;3.80;2.63;;;;;;;;;;6171248;23;20363;-84
2021/06/11 14:47:01;;;;;;;2.63;2.43;;;;;;;;;;6203757;23;20458;-85
2021/06/11 14:49:27;;;;;;;2.40;1.90;;;;;;;;;;6204513;23;20366;-85
2021/06/11 14:54:39;;;;;;;2.87;2.67;;;;;;;;;;6239665;23;20519;-87
2021/06/11 14:57:06;;;;;;;2.60;2.30;;;;;;;;;;6201912;23;20402;-85
2021/06/11 14:59:32;;;;;;;4.73;2.40;;;;;;;;;;6174787;23;20355;-86
2021/06/11 15:01:59;;;;;;;2.50;2.30;;;;;;;;;;6197838;23;20399;-83
2021/06/11 15:04:26;;;;;;;2.90;2.60;;;;;;;;;;6198474;23;20445;-85